Time;durP1;ratioP1;P1;durP2;ratioP2;P2;SDS_P1;SDS_P2;PMS_P1;PMS_P2;Temp;Humidity;BMP_temperature;BMP_pressure;BME280_temperature;BME280_humidity;BME280_pressure;Samples;Min_cycle;Max_cycle;Signal;HPM_P1;HPM_P2
2023/06/19 00:01:30;;;;;;;7.05;5.03;;;21.10;99.90;;;;;;5072861;28;20041;-80
2023/06/19 00:03:57;;;;;;;6.78;4.93;;;21.10;99.90;;;;;;5039565;28;20081;-80
2023/06/19 00:06:23;;;;;;;9.13;4.90;;;21.10;99.90;;;;;;5039825;28;20425;-80
2023/06/19 00:08:50;;;;;;;7.20;5.05;;;21.10;99.90;;;;;;5072180;28;20500;-80
2023/06/19 00:11:17;;;;;;;6.68;5.25;;;21.10;99.90;;;;;;5019465;28;20045;-80
2023/06/19 00:13:44;;;;;;;7.38;5.30;;;21.10;99.90;;;;;;5036352;28;20044;-80
2023/06/19 00:16:11;;;;;;;7.47;5.10;;;21.10;99.90;;;;;;5036006;28;20399;-80
2023/06/19 00:18:41;;;;;;;9.73;5.05;;;21.00;99.90;;;;;;5051931;28;20071;-80
2023/06/19 00:21:08;;;;;;;6.85;4.75;;;21.00;99.90;;;;;;5051846;28;20128;-80
2023/06/19 00:23:35;;;;;;;7.97;4.97;;;21.00;99.90;;;;;;5036327;28;20116;-80
2023/06/19 00:26:01;;;;;;;6.45;5.00;;;21.00;99.90;;;;;;5088410;28;20710;-80
2023/06/19 00:28:32;;;;;;;9.13;4.80;;;21.00;99.90;;;;;;5071936;28;20548;-80
2023/06/19 00:30:58;;;;;;;8.43;5.30;;;21.00;99.90;;;;;;5038674;28;20045;-80
2023/06/19 00:33:25;;;;;;;6.82;4.97;;;21.00;99.90;;;;;;5036957;28;20393;-80
2023/06/19 00:35:54;;;;;;;6.60;4.78;;;21.00;99.90;;;;;;5047919;28;20391;-80
2023/06/19 00:38:20;;;;;;;8.60;4.28;;;21.00;99.90;;;;;;5015666;28;20037;-80
2023/06/19 00:40:47;;;;;;;7.43;4.38;;;21.00;99.90;;;;;;5010194;28;20041;-81
2023/06/19 00:43:14;;;;;;;7.18;4.90;;;21.00;99.90;;;;;;5035330;28;20820;-80
2023/06/19 00:45:40;;;;;;;7.20;5.15;;;21.00;99.90;;;;;;5018874;28;20041;-80
2023/06/19 00:48:07;;;;;;;7.57;4.90;;;21.00;99.90;;;;;;5034503;28;20038;-80
2023/06/19 00:50:34;;;;;;;6.78;4.97;;;21.00;99.90;;;;;;5022950;28;20029;-80
2023/06/19 00:53:03;;;;;;;7.53;4.88;;;21.00;99.90;;;;;;5061377;28;20095;-80
2023/06/19 00:55:32;;;;;;;6.80;4.75;;;21.00;99.90;;;;;;5080222;28;20040;-80
2023/06/19 00:58:00;;;;;;;8.55;4.93;;;21.00;99.90;;;;;;5068101;28;20128;-80
2023/06/19 01:00:27;;;;;;;8.00;4.63;;;21.00;99.90;;;;;;5051190;28;20037;-80
2023/06/19 01:02:53;;;;;;;9.45;4.95;;;21.00;99.90;;;;;;5034863;28;20038;-80
2023/06/19 01:05:20;;;;;;;8.38;4.75;;;21.00;99.90;;;;;;5057480;28;20049;-80
2023/06/19 01:08:00;;;;;;;6.90;5.10;;;21.00;99.90;;;;;;5054548;28;20095;-80
2023/06/19 01:10:44;;;;;;;7.57;4.72;;;21.00;99.90;;;;;;5069534;28;20052;-80
2023/06/19 01:13:34;;;;;;;7.43;5.03;;;21.00;99.90;;;;;;5050820;28;20556;-80
2023/06/19 01:16:03;;;;;;;7.82;4.75;;;21.00;99.90;;;;;;5060746;28;20037;-80
2023/06/19 01:18:32;;;;;;;6.57;4.70;;;21.00;99.90;;;;;;5053882;28;20072;-80
2023/06/19 01:21:15;;;;;;;7.32;5.03;;;21.00;99.90;;;;;;5034436;28;20076;-80
2023/06/19 01:23:43;;;;;;;6.63;4.82;;;21.00;99.90;;;;;;5031038;28;20041;-80
2023/06/19 01:26:11;;;;;;;6.05;4.57;;;21.00;99.90;;;;;;5031290;28;20072;-80
2023/06/19 01:28:40;;;;;;;7.85;5.47;;;21.00;99.90;;;;;;5027612;28;20048;-80
2023/06/19 01:31:20;;;;;;;6.75;4.80;;;21.00;99.90;;;;;;5066181;28;20033;-80
2023/06/19 01:33:49;;;;;;;11.88;5.10;;;21.00;99.90;;;;;;5050404;28;20136;-79
2023/06/19 01:36:18;;;;;;;10.73;5.00;;;20.90;99.90;;;;;;5034770;28;20384;-80
2023/06/19 01:38:47;;;;;;;7.78;5.10;;;20.90;99.90;;;;;;5050805;28;20517;-80
2023/06/19 01:41:16;;;;;;;7.53;5.13;;;20.90;99.90;;;;;;5043427;28;20037;-80
2023/06/19 01:43:43;;;;;;;9.85;5.60;;;20.90;99.90;;;;;;5057485;28;20067;-80
2023/06/19 01:46:09;;;;;;;7.18;4.78;;;20.90;99.90;;;;;;5032474;28;20053;-80
2023/06/19 01:48:37;;;;;;;7.32;5.05;;;20.90;99.90;;;;;;4997522;28;20072;-79
2023/06/19 01:51:04;;;;;;;7.50;5.07;;;20.90;99.90;;;;;;5039042;28;20046;-79
2023/06/19 01:53:31;;;;;;;6.25;4.75;;;20.90;99.90;;;;;;5036994;28;20401;-79
2023/06/19 01:56:01;;;;;;;6.95;5.15;;;20.80;99.90;;;;;;5069901;28;20045;-79
2023/06/19 01:58:28;;;;;;;6.22;5.07;;;20.80;99.90;;;;;;5053667;28;20036;-80
2023/06/19 02:00:56;;;;;;;7.32;4.90;;;20.90;99.90;;;;;;5028696;28;20041;-80
2023/06/19 02:03:22;;;;;;;7.30;4.85;;;20.90;99.90;;;;;;5033680;28;20045;-80
2023/06/19 02:05:49;;;;;;;7.88;5.35;;;20.80;99.90;;;;;;5042189;28;20464;-80
2023/06/19 02:08:16;;;;;;;10.02;5.53;;;20.80;99.90;;;;;;5043745;28;20095;-82
2023/06/19 02:10:43;;;;;;;7.15;5.03;;;20.90;99.90;;;;;;5034184;28;20041;-79
2023/06/19 02:13:09;;;;;;;8.65;5.32;;;20.90;99.90;;;;;;5050410;28;20445;-80
2023/06/19 02:15:36;;;;;;;6.88;5.25;;;20.80;99.90;;;;;;5033900;28;20034;-80
2023/06/19 02:18:03;;;;;;;7.55;5.38;;;20.90;99.90;;;;;;5024615;28;20037;-79
2023/06/19 02:20:30;;;;;;;6.60;4.90;;;20.90;99.90;;;;;;5014035;28;20048;-79
2023/06/19 02:22:59;;;;;;;8.10;5.40;;;20.90;99.90;;;;;;5030527;28;20128;-79
2023/06/19 02:25:26;;;;;;;7.63;4.88;;;20.90;99.90;;;;;;5030711;28;20399;-79
2023/06/19 02:27:52;;;;;;;9.77;5.32;;;20.80;99.90;;;;;;5031019;28;20084;-79
2023/06/19 02:30:19;;;;;;;6.95;4.70;;;20.80;99.90;;;;;;5033338;28;20080;-80
2023/06/19 02:32:46;;;;;;;7.88;5.15;;;20.90;99.90;;;;;;5017470;28;20107;-79
2023/06/19 02:35:15;;;;;;;7.28;4.95;;;20.80;99.90;;;;;;5033494;28;20054;-80
2023/06/19 02:37:42;;;;;;;9.07;5.55;;;20.90;99.90;;;;;;5033415;28;20084;-80
2023/06/19 02:40:10;;;;;;;7.47;5.47;;;20.90;99.90;;;;;;5017647;28;20528;-80
2023/06/19 02:42:37;;;;;;;9.00;5.38;;;20.80;99.90;;;;;;5049420;28;20049;-79
2023/06/19 02:45:04;;;;;;;7.70;5.00;;;20.90;99.90;;;;;;5033640;28;20486;-80
2023/06/19 02:47:33;;;;;;;9.32;5.15;;;20.80;99.90;;;;;;5033071;28;20086;-80
2023/06/19 02:50:03;;;;;;;7.85;4.72;;;20.80;99.90;;;;;;5017592;28;20038;-80
2023/06/19 02:52:30;;;;;;;8.10;4.90;;;20.80;99.90;;;;;;5065398;28;20049;-80
2023/06/19 02:54:56;;;;;;;9.05;5.45;;;20.70;99.90;;;;;;5049688;28;20042;-80
2023/06/19 02:57:23;;;;;;;10.48;5.18;;;20.70;99.90;;;;;;5032607;28;20045;-80
2023/06/19 02:59:50;;;;;;;8.55;5.00;;;20.70;99.90;;;;;;5017198;28;20037;-80
2023/06/19 03:02:16;;;;;;;9.00;5.03;;;20.70;99.90;;;;;;5032471;28;20037;-79
2023/06/19 03:04:44;;;;;;;8.35;5.35;;;20.60;99.90;;;;;;5032479;28;20410;-80
2023/06/19 03:07:13;;;;;;;8.13;4.78;;;20.60;99.90;;;;;;5049043;28;20064;-80
2023/06/19 03:09:40;;;;;;;8.35;5.50;;;20.60;99.90;;;;;;5049113;28;20073;-80
2023/06/19 03:12:07;;;;;;;7.35;4.75;;;20.60;99.90;;;;;;5016649;28;20126;-80
2023/06/19 03:14:34;;;;;;;8.98;5.53;;;20.60;99.90;;;;;;5031997;28;20045;-80
2023/06/19 03:17:01;;;;;;;7.70;5.43;;;20.60;99.90;;;;;;5048788;28;20052;-79
2023/06/19 03:19:30;;;;;;;7.50;5.05;;;20.60;99.90;;;;;;5032604;28;20052;-80
2023/06/19 03:21:57;;;;;;;9.05;5.07;;;20.60;99.90;;;;;;5049411;28;20038;-80
2023/06/19 03:24:25;;;;;;;8.63;5.38;;;20.60;99.90;;;;;;5029212;28;20104;-80
2023/06/19 03:26:52;;;;;;;9.00;5.50;;;20.60;99.90;;;;;;5013356;28;20042;-80
2023/06/19 03:29:19;;;;;;;8.73;4.85;;;20.60;99.90;;;;;;5013112;28;20046;-80
2023/06/19 03:31:45;;;;;;;8.32;4.97;;;20.60;99.90;;;;;;5013012;28;20944;-80
2023/06/19 03:34:12;;;;;;;8.20;5.00;;;20.60;99.90;;;;;;5012323;28;20058;-80
2023/06/19 03:36:39;;;;;;;11.18;5.47;;;20.60;99.90;;;;;;5013074;28;20574;-80
2023/06/19 03:39:06;;;;;;;7.28;5.22;;;20.60;99.90;;;;;;5013193;28;20121;-80
2023/06/19 03:41:32;;;;;;;7.55;5.20;;;20.60;99.90;;;;;;5012766;28;20033;-79
2023/06/19 03:43:59;;;;;;;8.02;5.10;;;20.60;99.90;;;;;;5013105;28;20073;-79
2023/06/19 03:46:26;;;;;;;8.85;5.00;;;20.60;99.90;;;;;;5013843;28;20073;-80
2023/06/19 03:48:53;;;;;;;7.20;4.90;;;20.60;99.90;;;;;;5016397;28;20100;-80
2023/06/19 03:51:20;;;;;;;8.95;5.20;;;20.60;99.90;;;;;;5032280;28;20460;-79
2023/06/19 03:53:47;;;;;;;10.27;5.78;;;20.70;99.90;;;;;;5032137;28;20076;-79
2023/06/19 03:56:13;;;;;;;7.15;5.20;;;20.70;99.90;;;;;;5016811;28;20045;-80
2023/06/19 03:58:40;;;;;;;7.22;5.38;;;20.70;99.90;;;;;;5016285;28;20042;-80
2023/06/19 04:01:07;;;;;;;7.28;4.88;;;20.70;99.90;;;;;;5045454;28;20038;-80
2023/06/19 04:03:34;;;;;;;9.35;5.25;;;20.70;99.90;;;;;;5013144;28;20037;-80
2023/06/19 04:06:00;;;;;;;7.20;5.07;;;20.70;99.90;;;;;;5013171;28;20061;-80
2023/06/19 04:08:27;;;;;;;7.28;5.10;;;20.80;99.90;;;;;;5031159;28;20179;-80
2023/06/19 04:10:54;;;;;;;7.60;5.07;;;20.80;99.90;;;;;;5032112;28;20045;-79
2023/06/19 04:13:20;;;;;;;9.63;5.30;;;20.80;99.90;;;;;;5032470;28;20051;-80
2023/06/19 04:15:47;;;;;;;7.65;5.60;;;20.80;99.90;;;;;;5035671;28;20095;-79
2023/06/19 04:18:14;;;;;;;8.05;5.47;;;20.80;99.90;;;;;;5052367;28;20482;-80
2023/06/19 04:20:41;;;;;;;7.47;5.05;;;20.70;99.90;;;;;;5035737;28;20037;-80
2023/06/19 04:23:08;;;;;;;6.63;4.85;;;20.80;99.90;;;;;;5035761;28;20084;-80
2023/06/19 04:25:34;;;;;;;9.75;5.40;;;20.80;99.90;;;;;;5052173;28;20041;-81
2023/06/19 04:28:03;;;;;;;8.05;4.97;;;20.80;99.90;;;;;;5052441;28;20121;-80
2023/06/19 04:30:30;;;;;;;9.30;5.25;;;20.80;99.90;;;;;;5052001;28;20045;-79
2023/06/19 04:32:58;;;;;;;6.90;4.88;;;20.90;99.90;;;;;;5068087;28;20096;-79
2023/06/19 04:35:25;;;;;;;6.45;4.78;;;20.90;99.90;;;;;;5035248;28;20049;-79
2023/06/19 04:37:53;;;;;;;8.10;4.88;;;20.90;99.90;;;;;;5051134;28;20053;-80
2023/06/19 04:40:20;;;;;;;8.45;4.88;;;20.90;99.90;;;;;;5051725;28;20095;-80
2023/06/19 04:42:46;;;;;;;7.18;4.80;;;21.00;99.90;;;;;;5035477;28;20478;-80
2023/06/19 04:45:13;;;;;;;6.88;4.93;;;20.90;99.90;;;;;;5035848;28;20049;-80
2023/06/19 04:47:40;;;;;;;10.68;4.72;;;21.00;99.90;;;;;;5035191;28;20045;-80
2023/06/19 04:50:09;;;;;;;6.07;4.43;;;20.90;99.90;;;;;;5035172;28;20041;-80
2023/06/19 04:52:37;;;;;;;6.65;4.60;;;21.00;99.90;;;;;;5051758;28;20033;-80
2023/06/19 04:55:09;;;;;;;6.20;4.35;;;21.00;99.90;;;;;;5034750;28;20553;-80
2023/06/19 04:57:38;;;;;;;8.27;4.82;;;21.00;99.90;;;;;;5035799;28;20038;-80
2023/06/19 05:00:06;;;;;;;7.28;4.57;;;21.00;99.90;;;;;;5035319;28;20045;-80
2023/06/19 05:02:33;;;;;;;10.40;5.15;;;21.00;99.90;;;;;;5051550;28;20073;-80
2023/06/19 05:05:02;;;;;;;8.10;4.80;;;21.00;99.90;;;;;;5034799;28;20041;-80
2023/06/19 05:07:33;;;;;;;7.40;4.75;;;21.00;99.90;;;;;;5051435;28;20546;-80
2023/06/19 05:10:00;;;;;;;8.18;5.22;;;21.10;99.90;;;;;;5050767;28;20045;-80
2023/06/19 05:12:26;;;;;;;8.25;5.22;;;21.10;99.90;;;;;;5034848;28;20045;-80
2023/06/19 05:14:53;;;;;;;7.78;4.70;;;21.10;99.90;;;;;;5034557;28;20045;-80
2023/06/19 05:17:20;;;;;;;7.65;4.80;;;21.10;99.90;;;;;;5051204;28;20051;-80
2023/06/19 05:19:47;;;;;;;8.38;4.72;;;21.10;99.90;;;;;;5034755;28;20076;-80
2023/06/19 05:22:13;;;;;;;6.95;4.80;;;21.10;99.90;;;;;;5018484;28;20099;-80
2023/06/19 05:24:40;;;;;;;6.55;4.43;;;21.20;99.90;;;;;;5018526;28;20049;-80
2023/06/19 05:27:07;;;;;;;6.55;4.28;;;21.20;99.90;;;;;;5034014;28;20037;-81
2023/06/19 05:29:33;;;;;;;9.13;4.60;;;21.10;99.90;;;;;;5018875;28;20204;-80
2023/06/19 05:32:00;;;;;;;7.13;4.25;;;21.20;99.90;;;;;;5014499;28;20073;-80
2023/06/19 05:34:27;;;;;;;5.60;3.70;;;21.20;99.90;;;;;;5030803;28;20042;-81
2023/06/19 05:36:54;;;;;;;5.32;3.50;;;21.20;99.90;;;;;;5027634;28;20048;-79
2023/06/19 05:39:21;;;;;;;5.20;3.15;;;21.20;99.90;;;;;;5034266;28;20041;-80
2023/06/19 05:41:47;;;;;;;4.80;3.10;;;21.20;99.90;;;;;;5050461;28;20045;-81
2023/06/19 05:44:16;;;;;;;5.78;3.17;;;21.20;99.90;;;;;;5050589;28;20079;-81
2023/06/19 05:46:43;;;;;;;5.47;3.05;;;21.20;99.90;;;;;;5018537;28;20436;-80
2023/06/19 05:49:10;;;;;;;5.63;3.15;;;21.20;99.90;;;;;;5017757;28;20045;-81
2023/06/19 05:51:36;;;;;;;6.28;3.20;;;21.20;99.90;;;;;;5050672;28;20493;-80
2023/06/19 05:54:04;;;;;;;5.13;3.00;;;21.20;99.90;;;;;;5033716;28;20037;-80
2023/06/19 05:56:32;;;;;;;9.00;3.10;;;21.20;99.90;;;;;;5030545;28;20494;-81
2023/06/19 05:59:01;;;;;;;4.90;2.90;;;21.20;99.90;;;;;;5030790;28;20139;-81
2023/06/19 06:01:28;;;;;;;4.57;2.75;;;21.30;99.90;;;;;;5030934;28;20038;-80
2023/06/19 06:03:56;;;;;;;5.43;2.58;;;21.30;99.90;;;;;;5015822;28;20430;-81
2023/06/19 06:06:25;;;;;;;4.95;2.80;;;21.40;99.90;;;;;;5030860;28;20042;-80
2023/06/19 06:08:52;;;;;;;5.00;2.50;;;21.40;99.90;;;;;;5014352;28;20042;-81
2023/06/19 06:11:19;;;;;;;4.53;2.97;;;21.50;99.90;;;;;;5014723;28;20067;-81
2023/06/19 06:13:45;;;;;;;4.47;2.70;;;21.50;99.90;;;;;;5030483;28;20044;-80
2023/06/19 06:16:12;;;;;;;4.65;3.03;;;21.60;99.90;;;;;;5014181;28;20049;-80
2023/06/19 06:18:39;;;;;;;5.25;2.90;;;21.60;99.90;;;;;;5030895;28;20091;-80
2023/06/19 06:21:06;;;;;;;5.50;3.08;;;21.60;99.90;;;;;;5033667;28;20123;-79
2023/06/19 06:23:32;;;;;;;5.43;3.25;;;21.70;99.90;;;;;;5033481;28;20115;-80
2023/06/19 06:26:02;;;;;;;6.65;2.97;;;21.60;99.90;;;;;;5049373;28;20402;-79
2023/06/19 06:28:29;;;;;;;4.65;3.17;;;21.60;99.90;;;;;;5030099;28;20044;-79
2023/06/19 06:30:55;;;;;;;5.68;2.92;;;21.60;99.90;;;;;;5046778;28;20120;-79
2023/06/19 06:33:23;;;;;;;4.50;3.10;;;21.60;99.90;;;;;;5033487;28;20099;-79
2023/06/19 06:35:51;;;;;;;6.15;3.55;;;21.80;99.90;;;;;;5033171;28;20387;-79
2023/06/19 06:38:18;;;;;;;5.45;3.15;;;21.70;99.90;;;;;;5029175;28;20121;-80
2023/06/19 06:40:44;;;;;;;6.30;4.07;;;21.80;99.90;;;;;;5021187;28;20140;-79
2023/06/19 06:43:11;;;;;;;5.32;3.40;;;21.70;99.90;;;;;;5033539;28;20041;-80
2023/06/19 06:45:38;;;;;;;7.35;3.47;;;21.70;99.90;;;;;;5049588;28;20128;-79
2023/06/19 06:48:06;;;;;;;4.47;2.97;;;21.80;99.90;;;;;;5048841;28;20037;-80
2023/06/19 06:50:33;;;;;;;7.80;3.70;;;21.80;99.90;;;;;;5046316;28;20030;-80
2023/06/19 06:53:00;;;;;;;5.00;3.15;;;21.80;99.90;;;;;;5029412;28;20069;-79
2023/06/19 06:55:27;;;;;;;6.10;3.22;;;22.00;99.90;;;;;;5013169;28;20069;-79
2023/06/19 06:57:54;;;;;;;5.05;3.35;;;22.10;99.90;;;;;;5013986;28;20081;-79
2023/06/19 07:00:21;;;;;;;4.05;2.97;;;22.20;99.90;;;;;;5032667;28;20044;-79
2023/06/19 07:02:50;;;;;;;4.03;2.63;;;22.20;99.90;;;;;;5033216;28;20041;-79
2023/06/19 07:05:16;;;;;;;5.95;2.97;;;22.20;99.90;;;;;;5033115;28;20048;-80
2023/06/19 07:07:43;;;;;;;4.05;2.60;;;22.20;99.90;;;;;;5033544;28;20038;-79
2023/06/19 07:10:10;;;;;;;4.53;3.13;;;22.10;99.90;;;;;;5032882;28;20077;-80
2023/06/19 07:12:48;;;;;;;4.47;2.80;;;22.10;99.90;;;;;;5032844;28;20046;-81
2023/06/19 07:15:15;;;;;;;4.68;2.72;;;22.10;99.90;;;;;;5032821;28;20125;-80
2023/06/19 07:17:42;;;;;;;3.80;2.60;;;22.00;99.90;;;;;;5032972;28;20049;-80
2023/06/19 07:20:10;;;;;;;5.03;2.60;;;22.00;99.90;;;;;;5042977;28;20505;-80
2023/06/19 07:22:37;;;;;;;4.78;2.72;;;21.90;99.90;;;;;;5013154;28;20505;-80
2023/06/19 07:25:04;;;;;;;4.35;2.60;;;21.90;99.90;;;;;;5012885;28;20050;-80
2023/06/19 07:27:31;;;;;;;4.60;2.70;;;21.90;99.90;;;;;;5045821;28;20799;-80
2023/06/19 07:29:58;;;;;;;4.60;2.72;;;21.90;99.90;;;;;;5032507;28;20042;-80
2023/06/19 07:32:25;;;;;;;4.93;3.10;;;21.90;99.90;;;;;;5032392;28;20453;-80
2023/06/19 07:34:52;;;;;;;6.10;3.10;;;21.80;99.90;;;;;;5069072;28;20494;-80
2023/06/19 07:37:20;;;;;;;7.10;3.15;;;21.80;99.90;;;;;;5032293;28;20034;-80
2023/06/19 07:39:48;;;;;;;6.10;3.65;;;21.70;99.90;;;;;;5013380;28;20073;-81
2023/06/19 07:42:15;;;;;;;5.75;3.95;;;21.70;99.90;;;;;;5030235;28;20056;-79
2023/06/19 07:44:43;;;;;;;5.65;4.68;;;21.60;99.90;;;;;;5049003;28;20046;-79
2023/06/19 07:47:13;;;;;;;7.10;5.13;;;21.50;99.90;;;;;;5045023;28;20046;-81
2023/06/19 07:49:40;;;;;;;8.93;5.90;;;21.40;99.90;;;;;;5050407;28;20379;-80
2023/06/19 07:52:09;;;;;;;9.20;5.88;;;21.30;99.90;;;;;;5035693;28;20096;-81
2023/06/19 07:54:36;;;;;;;9.77;6.70;;;21.20;99.90;;;;;;5068621;28;20096;-80
2023/06/19 07:57:03;;;;;;;9.02;6.28;;;21.10;99.90;;;;;;5068048;28;20037;-81
2023/06/19 07:59:30;;;;;;;10.88;7.05;;;21.10;99.90;;;;;;5035841;28;20401;-80
2023/06/19 08:01:56;;;;;;;9.48;6.88;;;21.10;99.90;;;;;;5035929;28;20067;-80
2023/06/19 08:04:23;;;;;;;11.75;6.93;;;21.10;99.90;;;;;;5018956;28;20041;-80
2023/06/19 08:06:50;;;;;;;10.68;7.30;;;21.10;99.90;;;;;;5035587;28;20045;-80
2023/06/19 08:09:16;;;;;;;10.75;6.95;;;21.10;99.90;;;;;;5034971;28;20099;-80
2023/06/19 08:11:43;;;;;;;10.38;7.13;;;21.10;99.90;;;;;;5035462;28;20045;-80
2023/06/19 08:14:10;;;;;;;9.35;6.30;;;21.20;99.90;;;;;;5035053;28;20103;-81
2023/06/19 08:16:36;;;;;;;9.07;6.57;;;21.20;99.90;;;;;;5019662;28;20463;-81
2023/06/19 08:19:03;;;;;;;10.15;6.30;;;21.20;99.90;;;;;;5048324;28;20046;-80
2023/06/19 08:21:30;;;;;;;9.80;5.93;;;21.20;99.90;;;;;;5031927;28;20034;-81
2023/06/19 08:23:56;;;;;;;12.13;6.93;;;21.20;99.90;;;;;;5032047;28;20442;-80
2023/06/19 08:26:23;;;;;;;10.10;5.85;;;21.10;99.90;;;;;;5015318;28;20042;-80
2023/06/19 08:28:50;;;;;;;8.90;5.60;;;21.10;99.90;;;;;;5034148;28;20072;-80
2023/06/19 08:31:16;;;;;;;12.50;6.05;;;21.10;99.90;;;;;;5031300;28;20045;-80
2023/06/19 08:33:43;;;;;;;10.38;5.55;;;21.10;99.90;;;;;;5036378;28;20046;-81
2023/06/19 08:36:10;;;;;;;8.82;5.13;;;21.10;99.90;;;;;;5034587;28;20056;-81
2023/06/19 08:38:37;;;;;;;7.60;5.00;;;21.00;99.90;;;;;;5019249;28;20072;-81
2023/06/19 08:41:04;;;;;;;9.13;4.40;;;21.00;99.90;;;;;;5034930;28;20501;-80
2023/06/19 08:43:31;;;;;;;9.43;4.60;;;21.00;99.90;;;;;;5034695;28;20044;-79
2023/06/19 08:46:07;;;;;;;7.45;4.53;;;21.00;99.90;;;;;;5051391;28;20033;-80
2023/06/19 08:48:37;;;;;;;6.10;4.05;;;21.00;99.90;;;;;;5051076;28;20037;-81
2023/06/19 08:51:05;;;;;;;6.15;3.78;;;21.00;99.90;;;;;;5068281;28;20041;-81
2023/06/19 08:53:36;;;;;;;7.30;3.90;;;21.00;99.90;;;;;;5051011;28;20095;-81
2023/06/19 08:56:04;;;;;;;5.20;3.40;;;21.00;99.90;;;;;;5051002;28;20041;-81
2023/06/19 08:58:30;;;;;;;5.95;3.70;;;21.00;99.90;;;;;;5050315;28;20080;-80
2023/06/19 09:01:00;;;;;;;5.80;3.60;;;20.90;99.90;;;;;;5033687;28;20514;-80
2023/06/19 09:03:27;;;;;;;9.65;3.33;;;20.90;99.90;;;;;;5034084;28;20127;-80
2023/06/19 09:05:54;;;;;;;6.85;3.38;;;20.90;99.90;;;;;;5034761;28;20128;-80
2023/06/19 09:08:22;;;;;;;5.57;3.30;;;20.90;99.90;;;;;;5067203;28;20124;-80
2023/06/19 09:10:59;;;;;;;6.30;3.00;;;20.90;99.90;;;;;;5050839;28;20520;-80
2023/06/19 09:13:29;;;;;;;6.03;3.50;;;20.90;99.90;;;;;;5034567;28;20063;-80
2023/06/19 09:16:04;;;;;;;6.35;3.08;;;20.90;99.90;;;;;;5050966;28;20095;-80
2023/06/19 09:18:42;;;;;;;5.90;3.13;;;21.00;99.90;;;;;;5050247;28;20037;-80
2023/06/19 09:21:16;;;;;;;5.90;3.13;;;21.10;99.90;;;;;;5035687;28;20069;-81
2023/06/19 09:23:42;;;;;;;5.75;2.83;;;21.10;99.90;;;;;;5050156;28;20045;-80
2023/06/19 09:26:09;;;;;;;4.78;3.00;;;21.10;99.90;;;;;;5049501;28;20404;-81
2023/06/19 09:28:41;;;;;;;5.32;3.38;;;21.10;99.90;;;;;;5050473;28;20577;-79
2023/06/19 09:31:08;;;;;;;4.70;3.13;;;21.00;99.90;;;;;;5040246;28;20502;-79
2023/06/19 09:33:36;;;;;;;6.03;3.05;;;21.00;99.90;;;;;;5049283;28;20045;-80
2023/06/19 09:36:05;;;;;;;5.07;3.15;;;21.00;99.90;;;;;;5034196;28;20111;-86
2023/06/19 09:38:35;;;;;;;5.13;3.47;;;20.90;99.90;;;;;;5034029;28;20068;-85
2023/06/19 09:41:04;;;;;;;6.93;3.38;;;20.90;99.90;;;;;;5049960;28;20052;-86
2023/06/19 09:43:37;;;;;;;5.57;3.70;;;20.90;99.90;;;;;;5050327;28;20072;-85
2023/06/19 09:46:06;;;;;;;6.25;3.60;;;20.90;99.90;;;;;;5050293;28;20120;-85
2023/06/19 09:48:34;;;;;;;6.97;3.38;;;20.90;99.90;;;;;;5050674;28;20041;-86
2023/06/19 09:51:15;;;;;;;5.97;3.40;;;20.90;99.90;;;;;;5034456;28;20034;-85
2023/06/19 09:53:44;;;;;;;6.90;3.75;;;20.90;99.90;;;;;;5067012;28;20037;-86
2023/06/19 09:56:13;;;;;;;6.22;3.85;;;20.90;99.90;;;;;;5050795;28;20068;-86
2023/06/19 09:58:43;;;;;;;6.03;3.50;;;20.90;99.90;;;;;;5033943;28;20045;-86
2023/06/19 10:01:10;;;;;;;7.05;4.30;;;20.90;99.90;;;;;;5050454;28;20045;-86
2023/06/19 10:03:37;;;;;;;7.28;3.92;;;20.90;99.90;;;;;;5030155;28;20038;-86
2023/06/19 10:06:04;;;;;;;6.65;3.80;;;21.00;99.90;;;;;;5014935;28;20048;-87
2023/06/19 10:08:39;;;;;;;9.18;4.03;;;21.20;99.90;;;;;;5014660;28;20048;-86
2023/06/19 10:11:06;;;;;;;8.52;3.70;;;21.40;99.90;;;;;;5031897;28;20130;-86
2023/06/19 10:13:38;;;;;;;6.78;3.63;;;21.60;99.90;;;;;;5042865;28;20068;-86
2023/06/19 10:16:05;;;;;;;7.30;3.38;;;21.80;99.90;;;;;;5067049;28;20124;-86
2023/06/19 10:18:43;;;;;;;6.47;3.55;;;22.00;99.90;;;;;;5030159;28;20088;-86
2023/06/19 10:21:21;;;;;;;7.15;4.25;;;22.00;99.90;;;;;;5016127;28;20034;-87
2023/06/19 10:23:56;;;;;;;9.18;4.30;;;21.80;99.90;;;;;;5027250;28;20497;-86
2023/06/19 10:26:32;;;;;;;;;;;21.80;99.90;;;;;;5050471;28;20383;-86
2023/06/19 10:28:59;;;;;;;7.38;4.78;;;21.90;99.90;;;;;;5050300;28;20416;-86
2023/06/19 10:31:28;;;;;;;7.93;4.38;;;21.90;99.90;;;;;;5050031;28;20095;-85
2023/06/19 10:33:55;;;;;;;10.40;4.88;;;21.90;99.90;;;;;;5033862;28;20593;-86
2023/06/19 10:36:25;;;;;;;8.65;5.35;;;21.80;99.90;;;;;;5033337;28;20042;-86
2023/06/19 10:38:52;;;;;;;11.50;5.88;;;21.90;99.90;;;;;;5049957;28;20048;-87
2023/06/19 10:41:24;;;;;;;10.48;6.30;;;22.00;99.90;;;;;;5033430;28;20489;-86
2023/06/19 10:44:05;;;;;;;12.32;6.32;;;22.00;99.90;;;;;;5050965;28;20045;-85
2023/06/19 10:46:35;;;;;;;9.73;6.00;;;22.30;99.90;;;;;;5049215;28;20047;-86
2023/06/19 10:49:04;;;;;;;12.52;5.43;;;22.50;99.90;;;;;;5050362;28;20099;-85
2023/06/19 10:51:34;;;;;;;10.98;6.70;;;22.70;99.90;;;;;;5049660;28;20052;-87
2023/06/19 10:54:01;;;;;;;10.70;5.88;;;22.90;99.90;;;;;;5049963;28;20103;-87
2023/06/19 10:56:27;;;;;;;7.70;4.40;;;23.20;99.90;;;;;;5017437;28;20045;-86
2023/06/19 10:59:05;;;;;;;6.72;4.15;;;23.00;99.90;;;;;;5033439;28;20048;-86
2023/06/19 11:01:35;;;;;;;7.07;3.85;;;23.10;99.90;;;;;;5049647;28;20126;-87
2023/06/19 11:04:03;;;;;;;6.35;3.50;;;23.10;99.90;;;;;;5033793;28;20041;-87
2023/06/19 11:06:31;;;;;;;6.82;3.67;;;23.10;99.90;;;;;;5049751;28;20048;-86
2023/06/19 11:09:00;;;;;;;4.95;3.10;;;23.00;99.90;;;;;;5017390;28;20041;-85
2023/06/19 11:11:37;;;;;;;7.15;3.42;;;22.70;99.90;;;;;;5017761;28;20045;-87
2023/06/19 11:14:04;;;;;;;6.07;3.42;;;22.70;99.90;;;;;;5049638;28;20136;-87
2023/06/19 11:16:32;;;;;;;7.35;3.47;;;22.80;99.90;;;;;;5033294;28;20542;-86
2023/06/19 11:19:00;;;;;;;6.28;3.75;;;22.90;99.90;;;;;;5033588;28;20080;-86
2023/06/19 11:21:38;;;;;;;6.90;4.00;;;23.10;99.90;;;;;;5032967;28;20045;-85
2023/06/19 11:24:10;;;;;;;6.05;3.65;;;23.10;99.90;;;;;;5051035;28;20041;-87
2023/06/19 11:26:43;;;;;;;6.63;4.13;;;23.20;99.90;;;;;;5037691;28;20076;-85
2023/06/19 11:29:29;;;;;;;9.23;3.92;;;23.40;99.90;;;;;;5069935;28;20041;-86
2023/06/19 11:32:07;;;;;;;6.38;4.00;;;23.50;99.90;;;;;;5035782;28;20456;-87
2023/06/19 11:34:36;;;;;;;7.28;4.10;;;23.60;99.90;;;;;;5053055;28;20049;-86
2023/06/19 11:37:12;;;;;;;5.72;3.80;;;23.40;99.90;;;;;;5033497;28;20076;-86
2023/06/19 11:39:40;;;;;;;6.53;4.70;;;23.60;99.90;;;;;;5017807;28;20045;-86
2023/06/19 11:42:08;;;;;;;7.03;4.38;;;23.70;99.90;;;;;;5018339;28;20048;-86
2023/06/19 11:44:35;;;;;;;8.25;4.20;;;23.70;99.90;;;;;;5031710;28;20555;-87
2023/06/19 11:47:03;;;;;;;7.90;4.30;;;23.80;99.90;;;;;;5052921;28;20132;-86
2023/06/19 11:49:36;;;;;;;9.35;4.88;;;24.00;99.90;;;;;;5036960;28;20497;-86
2023/06/19 11:52:03;;;;;;;7.22;4.38;;;23.80;99.90;;;;;;5036720;28;20045;-86
2023/06/19 11:54:30;;;;;;;9.93;4.63;;;23.80;99.90;;;;;;5036496;28;20832;-85
2023/06/19 11:56:56;;;;;;;7.13;4.28;;;23.90;99.90;;;;;;5037040;28;20044;-86
2023/06/19 11:59:23;;;;;;;10.98;4.90;;;24.10;99.90;;;;;;5028294;28;20040;-87
2023/06/19 12:01:50;;;;;;;7.90;4.85;;;23.80;99.90;;;;;;5055931;28;20038;-86
2023/06/19 12:04:17;;;;;;;10.23;4.97;;;23.50;99.90;;;;;;5016863;28;20124;-85
2023/06/19 12:06:43;;;;;;;7.93;5.15;;;23.30;99.90;;;;;;5048330;28;20041;-86
2023/06/19 12:09:11;;;;;;;8.07;5.55;;;23.50;99.90;;;;;;5020795;28;20038;-86
2023/06/19 12:11:38;;;;;;;7.25;4.85;;;23.60;99.90;;;;;;5037035;28;20088;-86
2023/06/19 12:14:04;;;;;;;8.95;5.28;;;23.60;99.90;;;;;;5036981;28;20151;-86
2023/06/19 12:16:31;;;;;;;9.57;4.72;;;23.40;99.90;;;;;;5019545;28;20052;-86
2023/06/19 12:18:58;;;;;;;7.05;4.90;;;23.40;99.90;;;;;;5052630;28;20029;-87
2023/06/19 12:21:25;;;;;;;9.57;5.07;;;23.30;99.90;;;;;;5052369;28;20120;-86
2023/06/19 12:23:51;;;;;;;9.38;4.93;;;23.40;99.90;;;;;;5036400;28;21426;-86
2023/06/19 12:26:19;;;;;;;7.53;5.15;;;23.50;99.90;;;;;;5046824;28;20045;-85
2023/06/19 12:28:46;;;;;;;7.65;4.40;;;23.50;99.90;;;;;;5052657;28;20475;-86
2023/06/19 12:31:13;;;;;;;6.80;4.57;;;23.70;99.90;;;;;;5035988;28;20041;-86
2023/06/19 12:33:43;;;;;;;8.57;4.30;;;23.90;99.90;;;;;;5035925;28;20037;-86
2023/06/19 12:36:12;;;;;;;7.75;4.75;;;24.20;99.90;;;;;;5067002;28;20058;-86
2023/06/19 12:38:40;;;;;;;7.40;4.85;;;24.10;99.90;;;;;;5051699;28;20073;-86
2023/06/19 12:41:07;;;;;;;7.45;4.88;;;24.10;99.90;;;;;;5032917;28;20375;-85
2023/06/19 12:43:33;;;;;;;10.27;5.53;;;23.90;99.90;;;;;;5048896;28;20037;-86
2023/06/19 12:46:00;;;;;;;7.82;4.70;;;23.60;99.90;;;;;;5039936;28;20041;-86
2023/06/19 12:48:27;;;;;;;8.60;5.20;;;23.70;99.90;;;;;;5035792;28;20041;-85
2023/06/19 12:50:57;;;;;;;7.22;5.00;;;23.70;99.90;;;;;;5052735;28;20049;-86